Accueil
METAR-TAF:

METAR-TAF

Aéroports :

Aéroport international Sultan Hasanuddin

Makassar, Sulawesi du Sud, Indonésie

latitude: 05-04S, longitude: 119-33E, altitude: 14 m

Observation

Le bulletin a été fait il y a 40 minutes, à 09:00 UTC
Vent 5 kt de nord/nord-ouest
Température 29°C
Humidité 84%
Pression 1008 hPa
Visibilité: 9000 m
Nuages épars à une hauteur de 1900 ft
averses à proximité,

METAR: WAAA 150900Z 33005KT 9000 VCSH SCT019 29/26 Q1008 NOSIG

Heure: 16:40 (09:40 UTC)

Prévision

Le bulletin a été fait il y a 4 heures et 40 minutes, à 05:00 UTC
Prévision valable du 15 à 06 UTC au 16 à 12 UTC
Vent 10 kt de ouest
Visibilité 10 km ou plus
Nuages épars à une hauteur de 1900 ft
Evoluant progressivement
du 15 à 12 UTC au 15 à 13 UTC
Vent 4 kt de est

TAF: WAAA 150500Z 1506/1612 27010KT 9999 SCT019 BECMG 1512/1513 10004KT

Observations et prévisions météorologiques de plus de 4000 aéroports (messages METAR et TAF).

Les stations disponibles sont représentées par des disques jaunes et rouges sur la carte.

Passer la souris dessus pour voir le nom de la station.

Cliquer dessus pour voir les observations et prévisions météorologiques.

Pour changer de carte: cliquez sur les boutons verts avec une croix noire pour zoomer, sur le bouton vert avec un tiret pour effectuer un zoom arrière, ou sur les flèches vertes pour les cartes adjacentes.


METAR-TAF: